Saint Hedwig, TX (78152)

19:14 CDT le 25 octobre 2014 (GMT -0500)
Sayers | Change Station
CLOSE
Current Station
Stations météorologiques personnelles
Location: Adkins, TX
Altitude: 582 ft
Stations météo à proximité

Alt. 582 ft 29.39 °N, 98.28 °W | Updated 1 minute ago

Ciel dégagé
Ciel dégagé
80.1 ° F
Paraît 80 ° F
N
0.0
Vent Variable Vent de SE
Gusts 4.0 mph

Aujourd'hui
Haut(e) -- | Bas -- ° F
--% Risque de précip.
Hier
Haut(e) -- | Bas -- ° F
Precip. -- pouce
7:40 AM 6:52 PM
Lune montante, 5% visible
Pression 30.08 pouce
Visibilité 10.0 Miles terrestres
Nuages Ciel dégagé
indice de chaleur 80 ° F
Point de rosée 57 ° F
Humidité 45%
Précipitations 0.00 pouce
Profondeur de la couche neigeuse Non disponible.
UV 0 sur 12
Pollen 6.10 sur 12
Ozone Moyen
PM2.5 Bon
Flu Activity Local Activity
METAR KRND 252358Z AUTO 15007KT 10SM CLR 26/13 A3009 RMK AO2 SLP184 T02610131 10309 20261 55003

More Conditions Fewer Conditions

Pression 30.08 pouce
Visibilité 10.0 Miles terrestres
Nuages Ciel dégagé
indice de chaleur 80 ° F
Point de rosée 57 ° F
Humidité 45%
Précipitations 0.00 pouce
Profondeur de la couche neigeuse Non disponible.
UV 0 sur 12
Pollen 6.10 sur 12
Ozone Moyen
PM2.5 Bon
Flu Activity Local Activity
METAR KRND 252358Z AUTO 15007KT 10SM CLR 26/13 A3009 RMK AO2 SLP184 T02610131 10309 20261 55003

More Conditions Fewer Conditions

10-Day Weather Forecast

Almanac

Astronomie

Oct. 25, 2014 Lever Coucher
Temps réel 07:40 CDT 18:52 CDT
Crépuscule civil 07:16 CDT 19:16 CDT
Crépuscule nautique 06:48 CDT 19:44 CDT
Crépuscule astronomique 06:20 CDT 20:12 CDT
Lune 09:15 CDT (10/25) 20:23 CDT (10/25)
Durée de lumière visible 12h 00m
Longueur du jour
11h 11m
Tomorrow will be 1m 37s shorter.
Lune montante, 5% of the Moon is Illuminated
Aujourd'hui
Lune montante
Oct 30
Premier quartier
Nov 6
Pleine lune
Nov 14
Dernier quartier
Nov 22
Nouveau

Extrêmes aujourd'hui

State Highs State Lows

Community

WunderPhotos

Upload Photos

1,765,039 Photos téléchargées !

Nearby

Qualité de l'air

  Qualité de l'air Indice de la qualité de l'air Polluant
Hier Insalubre pour les personnes sensibles
OZONE
Hier Moyen
PM2.5
Actuel Moyen
OZONE
Actuel Bon
PM2.5
samedi Moyen
OZONE
samedi Bon
PM10
dimanche Moyen
OZONE
dimanche Bon
PM10
lundi Bon
OZONE
lundi Bon
PM10
mardi Bon
OZONE
mardi Bon
PM10

Épaisseur de neige

Station Depth Altitude
Pas de nouvelles chutes de neige

Activité sismique

Ville Distance Mag. Time & Date
No recent earthquake activity has been reported nearby.
Minimum magnitude displayed is 2.5.

Températures des eaux côtières

Lieu Température
Aucun rapport de station

Stations météo à proximité